sensor_id;sensor_type;location;lat;lon;timestamp;pressure;altitude;pressure_sealevel;temperature;humidity
70370;BME280;57790;51.356;-2.906;2024-02-23T00:02:25;98675.97;;;7.88;100.00
70370;BME280;57790;51.356;-2.906;2024-02-23T00:05:25;98669.03;;;7.81;100.00
70370;BME280;57790;51.356;-2.906;2024-02-23T00:08:26;98658.25;;;7.75;100.00
70370;BME280;57790;51.356;-2.906;2024-02-23T00:11:26;98661.31;;;7.79;100.00
70370;BME280;57790;51.356;-2.906;2024-02-23T00:14:29;98658.25;;;7.69;100.00
70370;BME280;57790;51.356;-2.906;2024-02-23T00:17:31;98647.13;;;7.80;100.00
70370;BME280;57790;51.356;-2.906;2024-02-23T00:20:31;98646.28;;;7.80;100.00
70370;BME280;57790;51.356;-2.906;2024-02-23T00:23:37;98653.47;;;7.92;100.00
70370;BME280;57790;51.356;-2.906;2024-02-23T00:26:37;98652.69;;;8.05;100.00
70370;BME280;57790;51.356;-2.906;2024-02-23T00:29:38;98642.34;;;8.03;100.00
70370;BME280;57790;51.356;-2.906;2024-02-23T00:32:38;98638.88;;;8.03;100.00
70370;BME280;57790;51.356;-2.906;2024-02-23T00:35:39;98643.50;;;7.94;100.00
70370;BME280;57790;51.356;-2.906;2024-02-23T00:38:39;98636.03;;;7.98;100.00
70370;BME280;57790;51.356;-2.906;2024-02-23T00:41:40;98639.44;;;7.85;100.00
70370;BME280;57790;51.356;-2.906;2024-02-23T00:44:40;98651.78;;;7.78;100.00
70370;BME280;57790;51.356;-2.906;2024-02-23T00:47:40;98646.75;;;7.90;100.00
70370;BME280;57790;51.356;-2.906;2024-02-23T00:50:41;98646.34;;;7.93;100.00
70370;BME280;57790;51.356;-2.906;2024-02-23T00:53:41;98646.41;;;7.99;100.00
70370;BME280;57790;51.356;-2.906;2024-02-23T00:56:42;98644.97;;;8.03;100.00
70370;BME280;57790;51.356;-2.906;2024-02-23T00:59:42;98678.88;;;8.06;100.00
70370;BME280;57790;51.356;-2.906;2024-02-23T01:02:42;98680.09;;;7.97;100.00
70370;BME280;57790;51.356;-2.906;2024-02-23T01:05:43;98667.25;;;7.94;100.00
70370;BME280;57790;51.356;-2.906;2024-02-23T01:08:43;98662.63;;;7.96;100.00
70370;BME280;57790;51.356;-2.906;2024-02-23T01:11:44;98660.16;;;7.95;100.00
70370;BME280;57790;51.356;-2.906;2024-02-23T01:14:44;98658.16;;;7.97;100.00
70370;BME280;57790;51.356;-2.906;2024-02-23T01:17:44;98646.75;;;7.90;100.00
70370;BME280;57790;51.356;-2.906;2024-02-23T01:20:45;98651.84;;;7.91;100.00
70370;BME280;57790;51.356;-2.906;2024-02-23T01:23:46;98658.97;;;7.97;100.00
70370;BME280;57790;51.356;-2.906;2024-02-23T01:26:47;98654.88;;;7.95;100.00
70370;BME280;57790;51.356;-2.906;2024-02-23T01:29:47;98663.00;;;7.93;100.00
70370;BME280;57790;51.356;-2.906;2024-02-23T01:32:48;98658.34;;;7.95;100.00
70370;BME280;57790;51.356;-2.906;2024-02-23T01:35:48;98649.19;;;7.91;100.00
70370;BME280;57790;51.356;-2.906;2024-02-23T01:38:49;98658.72;;;7.92;100.00
70370;BME280;57790;51.356;-2.906;2024-02-23T01:41:49;98659.34;;;7.94;100.00
70370;BME280;57790;51.356;-2.906;2024-02-23T01:44:50;98656.09;;;7.92;100.00
70370;BME280;57790;51.356;-2.906;2024-02-23T01:47:50;98652.88;;;7.97;100.00
70370;BME280;57790;51.356;-2.906;2024-02-23T01:50:51;98652.69;;;7.98;100.00
70370;BME280;57790;51.356;-2.906;2024-02-23T01:53:51;98652.88;;;7.97;100.00
70370;BME280;57790;51.356;-2.906;2024-02-23T01:56:52;98652.44;;;7.93;100.00
70370;BME280;57790;51.356;-2.906;2024-02-23T01:59:53;98659.34;;;7.94;100.00
70370;BME280;57790;51.356;-2.906;2024-02-23T02:02:53;98652.69;;;7.98;100.00
70370;BME280;57790;51.356;-2.906;2024-02-23T02:05:55;98655.31;;;7.98;100.00
70370;BME280;57790;51.356;-2.906;2024-02-23T02:08:58;98652.69;;;7.98;100.00
70370;BME280;57790;51.356;-2.906;2024-02-23T02:11:59;98649.59;;;7.95;100.00
70370;BME280;57790;51.356;-2.906;2024-02-23T02:14:59;98642.91;;;7.92;100.00
70370;BME280;57790;51.356;-2.906;2024-02-23T02:18:01;98655.09;;;7.93;100.00
70370;BME280;57790;51.356;-2.906;2024-02-23T02:21:02;98660.00;;;7.96;100.00
70370;BME280;57790;51.356;-2.906;2024-02-23T02:24:02;98651.06;;;7.97;100.00
70370;BME280;57790;51.356;-2.906;2024-02-23T02:27:03;98655.91;;;7.94;100.00
70370;BME280;57790;51.356;-2.906;2024-02-23T02:30:04;98655.69;;;7.95;100.00
70370;BME280;57790;51.356;-2.906;2024-02-23T02:33:04;98651.63;;;7.93;100.00
70370;BME280;57790;51.356;-2.906;2024-02-23T02:36:05;98649.19;;;7.91;100.00
70370;BME280;57790;51.356;-2.906;2024-02-23T02:39:05;98649.19;;;7.91;100.00
70370;BME280;57790;51.356;-2.906;2024-02-23T02:42:07;98646.75;;;7.90;100.00
70370;BME280;57790;51.356;-2.906;2024-02-23T02:45:07;98655.47;;;7.90;100.00
70370;BME280;57790;51.356;-2.906;2024-02-23T02:48:08;98658.72;;;7.86;100.00
70370;BME280;57790;51.356;-2.906;2024-02-23T02:51:08;98647.16;;;7.87;100.00
70370;BME280;57790;51.356;-2.906;2024-02-23T02:54:09;98649.59;;;7.88;100.00
70370;BME280;57790;51.356;-2.906;2024-02-23T02:57:09;98650.59;;;7.87;100.00
70370;BME280;57790;51.356;-2.906;2024-02-23T03:00:10;98641.47;;;7.90;100.00
70370;BME280;57790;51.356;-2.906;2024-02-23T03:03:11;98637.41;;;7.87;100.00
70370;BME280;57790;51.356;-2.906;2024-02-23T03:06:13;98637.00;;;7.90;100.00
70370;BME280;57790;51.356;-2.906;2024-02-23T03:09:13;98634.38;;;7.90;100.00
70370;BME280;57790;51.356;-2.906;2024-02-23T03:12:13;98646.13;;;7.81;100.00
70370;BME280;57790;51.356;-2.906;2024-02-23T03:15:14;98633.56;;;7.83;100.00
70370;BME280;57790;51.356;-2.906;2024-02-23T03:18:15;98643.09;;;7.84;100.00
70370;BME280;57790;51.356;-2.906;2024-02-23T03:21:15;98647.56;;;7.84;100.00
70370;BME280;57790;51.356;-2.906;2024-02-23T03:24:16;98654.41;;;7.78;100.00
70370;BME280;57790;51.356;-2.906;2024-02-23T03:27:16;98645.28;;;7.81;100.00
70370;BME280;57790;51.356;-2.906;2024-02-23T03:30:16;98648.38;;;7.84;100.00
70370;BME280;57790;51.356;-2.906;2024-02-23T03:33:17;98655.03;;;7.80;100.00
70370;BME280;57790;51.356;-2.906;2024-02-23T03:36:17;98663.75;;;7.81;100.00
70370;BME280;57790;51.356;-2.906;2024-02-23T03:39:17;98663.34;;;7.77;100.00
70370;BME280;57790;51.356;-2.906;2024-02-23T03:42:18;98665.56;;;7.80;100.00
70370;BME280;57790;51.356;-2.906;2024-02-23T03:45:18;98662.31;;;7.78;100.00
70370;BME280;57790;51.356;-2.906;2024-02-23T03:48:19;98663.72;;;7.74;100.00
70370;BME280;57790;51.356;-2.906;2024-02-23T03:51:19;98660.50;;;7.79;100.00
70370;BME280;57790;51.356;-2.906;2024-02-23T03:54:20;98653.19;;;7.74;100.00
70370;BME280;57790;51.356;-2.906;2024-02-23T03:57:20;98652.16;;;7.75;100.00
70370;BME280;57790;51.356;-2.906;2024-02-23T04:00:20;98654.59;;;7.70;100.00
70370;BME280;57790;51.356;-2.906;2024-02-23T04:03:23;98645.25;;;7.67;100.00
70370;BME280;57790;51.356;-2.906;2024-02-23T04:06:23;98664.34;;;7.76;100.00
70370;BME280;57790;51.356;-2.906;2024-02-23T04:09:24;98655.63;;;7.75;100.00
70370;BME280;57790;51.356;-2.906;2024-02-23T04:12:24;98654.41;;;7.71;100.00
70370;BME280;57790;51.356;-2.906;2024-02-23T04:15:25;98658.06;;;7.77;100.00
70370;BME280;57790;51.356;-2.906;2024-02-23T04:18:25;98654.59;;;7.76;100.00
70370;BME280;57790;51.356;-2.906;2024-02-23T04:21:26;98660.94;;;7.82;100.00
70370;BME280;57790;51.356;-2.906;2024-02-23T04:24:26;98669.47;;;7.84;100.00
70370;BME280;57790;51.356;-2.906;2024-02-23T04:27:26;98661.97;;;7.81;100.00
70370;BME280;57790;51.356;-2.906;2024-02-23T04:30:27;98668.03;;;7.82;100.00
70370;BME280;57790;51.356;-2.906;2024-02-23T04:33:28;98669.41;;;7.78;100.00
70370;BME280;57790;51.356;-2.906;2024-02-23T04:36:28;98668.03;;;7.82;100.00
70370;BME280;57790;51.356;-2.906;2024-02-23T04:39:29;98677.13;;;7.79;100.00
70370;BME280;57790;51.356;-2.906;2024-02-23T04:42:29;98675.75;;;7.83;100.00
70370;BME280;57790;51.356;-2.906;2024-02-23T04:45:30;98689.56;;;7.85;100.00
70370;BME280;57790;51.356;-2.906;2024-02-23T04:48:30;98696.66;;;7.85;100.00
70370;BME280;57790;51.356;-2.906;2024-02-23T04:51:33;98697.47;;;7.85;100.00
70370;BME280;57790;51.356;-2.906;2024-02-23T04:54:34;98695.44;;;7.87;100.00
70370;BME280;57790;51.356;-2.906;2024-02-23T04:57:36;98691.81;;;7.88;100.00
70370;BME280;57790;51.356;-2.906;2024-02-23T05:00:37;98695.44;;;7.87;100.00
70370;BME280;57790;51.356;-2.906;2024-02-23T05:03:38;98702.78;;;7.92;100.00
70370;BME280;57790;51.356;-2.906;2024-02-23T05:06:38;98691.81;;;7.88;100.00
70370;BME280;57790;51.356;-2.906;2024-02-23T05:09:39;98692.19;;;7.85;100.00
70370;BME280;57790;51.356;-2.906;2024-02-23T05:12:40;98694.63;;;7.87;100.00
70370;BME280;57790;51.356;-2.906;2024-02-23T05:15:41;98691.00;;;7.88;100.00
70370;BME280;57790;51.356;-2.906;2024-02-23T05:18:41;98695.44;;;7.87;100.00
70370;BME280;57790;51.356;-2.906;2024-02-23T05:21:42;98703.16;;;7.82;100.00
70370;BME280;57790;51.356;-2.906;2024-02-23T05:24:42;98696.25;;;7.81;100.00
70370;BME280;57790;51.356;-2.906;2024-02-23T05:27:44;98693.59;;;7.81;100.00
70370;BME280;57790;51.356;-2.906;2024-02-23T05:30:44;98699.69;;;7.82;100.00
70370;BME280;57790;51.356;-2.906;2024-02-23T05:33:45;98698.88;;;7.81;100.00
70370;BME280;57790;51.356;-2.906;2024-02-23T05:36:46;98704.53;;;7.78;100.00
70370;BME280;57790;51.356;-2.906;2024-02-23T05:39:46;98705.13;;;7.80;100.00
70370;BME280;57790;51.356;-2.906;2024-02-23T05:42:47;98703.72;;;7.78;100.00
70370;BME280;57790;51.356;-2.906;2024-02-23T05:45:47;98708.56;;;7.74;100.00
70370;BME280;57790;51.356;-2.906;2024-02-23T05:48:48;98691.94;;;7.73;100.00
70370;BME280;57790;51.356;-2.906;2024-02-23T05:51:48;98691.94;;;7.80;100.00
70370;BME280;57790;51.356;-2.906;2024-02-23T05:54:51;98689.31;;;7.80;100.00
70370;BME280;57790;51.356;-2.906;2024-02-23T05:57:52;98686.06;;;7.78;100.00
70370;BME280;57790;51.356;-2.906;2024-02-23T06:00:52;98691.59;;;7.83;100.00
70370;BME280;57790;51.356;-2.906;2024-02-23T06:03:53;98693.16;;;7.78;100.00
70370;BME280;57790;51.356;-2.906;2024-02-23T06:06:55;98691.34;;;7.78;100.00
70370;BME280;57790;51.356;-2.906;2024-02-23T06:09:56;98697.41;;;7.72;100.00
70370;BME280;57790;51.356;-2.906;2024-02-23T06:12:56;98702.25;;;7.68;100.00
70370;BME280;57790;51.356;-2.906;2024-02-23T06:15:56;98699.44;;;7.76;100.00
70370;BME280;57790;51.356;-2.906;2024-02-23T06:18:57;98698.63;;;7.76;100.00
70370;BME280;57790;51.356;-2.906;2024-02-23T06:21:58;98688.09;;;7.76;100.00
70370;BME280;57790;51.356;-2.906;2024-02-23T06:24:58;98689.09;;;7.75;100.00
70370;BME280;57790;51.356;-2.906;2024-02-23T06:27:59;98677.50;;;7.69;100.00
70370;BME280;57790;51.356;-2.906;2024-02-23T06:30:59;98684.41;;;7.70;100.00
70370;BME280;57790;51.356;-2.906;2024-02-23T06:34:00;98687.47;;;7.74;100.00
70370;BME280;57790;51.356;-2.906;2024-02-23T06:37:00;98704.91;;;7.68;100.00
70370;BME280;57790;51.356;-2.906;2024-02-23T06:40:00;98700.97;;;7.58;100.00
70370;BME280;57790;51.356;-2.906;2024-02-23T06:43:01;98706.53;;;7.69;100.00
70370;BME280;57790;51.356;-2.906;2024-02-23T06:46:06;98711.75;;;7.63;100.00
70370;BME280;57790;51.356;-2.906;2024-02-23T06:49:08;98707.25;;;7.57;100.00
70370;BME280;57790;51.356;-2.906;2024-02-23T06:52:09;98698.09;;;7.53;100.00
70370;BME280;57790;51.356;-2.906;2024-02-23T06:55:09;98695.31;;;7.61;100.00
70370;BME280;57790;51.356;-2.906;2024-02-23T06:58:10;98688.81;;;7.63;100.00
70370;BME280;57790;51.356;-2.906;2024-02-23T07:01:10;98696.50;;;7.58;100.00
70370;BME280;57790;51.356;-2.906;2024-02-23T07:04:13;98690.66;;;7.63;100.00
70370;BME280;57790;51.356;-2.906;2024-02-23T07:07:14;98703.81;;;7.63;100.00
70370;BME280;57790;51.356;-2.906;2024-02-23T07:10:14;98696.97;;;7.68;100.00
70370;BME280;57790;51.356;-2.906;2024-02-23T07:13:15;98703.22;;;7.61;100.00
70370;BME280;57790;51.356;-2.906;2024-02-23T07:16:15;98696.13;;;7.61;100.00
70370;BME280;57790;51.356;-2.906;2024-02-23T07:19:15;98699.41;;;7.70;100.00
70370;BME280;57790;51.356;-2.906;2024-02-23T07:22:16;98696.53;;;7.65;100.00
70370;BME280;57790;51.356;-2.906;2024-02-23T07:25:18;98703.06;;;7.69;100.00
70370;BME280;57790;51.356;-2.906;2024-02-23T07:28:22;98712.22;;;7.73;100.00
70370;BME280;57790;51.356;-2.906;2024-02-23T07:31:23;98732.28;;;7.67;100.00
70370;BME280;57790;51.356;-2.906;2024-02-23T07:34:23;98731.34;;;7.82;100.00
70370;BME280;57790;51.356;-2.906;2024-02-23T07:37:26;98733.53;;;7.78;100.00
70370;BME280;57790;51.356;-2.906;2024-02-23T07:40:27;98742.84;;;7.74;100.00
70370;BME280;57790;51.356;-2.906;2024-02-23T07:43:27;98741.63;;;7.70;100.00
70370;BME280;57790;51.356;-2.906;2024-02-23T07:46:29;98744.34;;;7.83;100.00
70370;BME280;57790;51.356;-2.906;2024-02-23T07:49:29;98749.97;;;7.80;100.00
70370;BME280;57790;51.356;-2.906;2024-02-23T07:52:30;98753.19;;;7.75;100.00
70370;BME280;57790;51.356;-2.906;2024-02-23T07:55:31;98752.81;;;7.79;100.00
70370;BME280;57790;51.356;-2.906;2024-02-23T07:58:31;98761.53;;;7.79;100.00
70370;BME280;57790;51.356;-2.906;2024-02-23T08:01:31;98772.75;;;7.81;100.00
70370;BME280;57790;51.356;-2.906;2024-02-23T08:04:32;98773.56;;;7.82;100.00
70370;BME280;57790;51.356;-2.906;2024-02-23T08:07:32;98769.69;;;7.84;100.00
70370;BME280;57790;51.356;-2.906;2024-02-23T08:10:33;98781.88;;;7.85;100.00
70370;BME280;57790;51.356;-2.906;2024-02-23T08:13:33;98782.28;;;7.82;100.00
70370;BME280;57790;51.356;-2.906;2024-02-23T08:16:34;98783.13;;;7.89;100.00
70370;BME280;57790;51.356;-2.906;2024-02-23T08:19:34;98777.63;;;7.84;100.00
70370;BME280;57790;51.356;-2.906;2024-02-23T08:22:34;98772.16;;;7.92;100.00
70370;BME280;57790;51.356;-2.906;2024-02-23T08:25:36;98771.97;;;7.94;100.00
70370;BME280;57790;51.356;-2.906;2024-02-23T08:28:36;98772.09;;;7.79;100.00
70370;BME280;57790;51.356;-2.906;2024-02-23T08:31:37;98777.38;;;7.79;100.00
70370;BME280;57790;51.356;-2.906;2024-02-23T08:34:37;98776.34;;;7.80;100.00
70370;BME280;57790;51.356;-2.906;2024-02-23T08:37:37;98777.81;;;7.83;100.00
70370;BME280;57790;51.356;-2.906;2024-02-23T08:40:38;98779.56;;;7.75;100.00
70370;BME280;57790;51.356;-2.906;2024-02-23T08:43:39;98781.06;;;7.85;100.00
70370;BME280;57790;51.356;-2.906;2024-02-23T08:46:40;98782.28;;;7.82;100.00
70370;BME280;57790;51.356;-2.906;2024-02-23T08:49:41;98785.91;;;7.81;100.00
70370;BME280;57790;51.356;-2.906;2024-02-23T08:52:41;98784.13;;;7.88;100.00
70370;BME280;57790;51.356;-2.906;2024-02-23T08:55:41;98788.78;;;7.86;100.00
70370;BME280;57790;51.356;-2.906;2024-02-23T08:58:42;98793.84;;;7.81;100.00
70370;BME280;57790;51.356;-2.906;2024-02-23T09:01:42;98790.75;;;7.78;100.00
70370;BME280;57790;51.356;-2.906;2024-02-23T09:04:45;98794.38;;;7.70;100.00
70370;BME280;57790;51.356;-2.906;2024-02-23T09:07:45;98798.31;;;7.87;100.00
70370;BME280;57790;51.356;-2.906;2024-02-23T09:10:46;98806.47;;;7.92;100.00
70370;BME280;57790;51.356;-2.906;2024-02-23T09:13:46;98806.72;;;7.97;100.00
70370;BME280;57790;51.356;-2.906;2024-02-23T09:16:47;98812.19;;;7.96;100.00
70370;BME280;57790;51.356;-2.906;2024-02-23T09:19:50;98828.78;;;7.90;100.00
70370;BME280;57790;51.356;-2.906;2024-02-23T09:22:50;98827.88;;;7.76;100.00
70370;BME280;57790;51.356;-2.906;2024-02-23T09:25:51;98823.94;;;7.93;100.00
70370;BME280;57790;51.356;-2.906;2024-02-23T09:28:51;98817.81;;;7.86;100.00
70370;BME280;57790;51.356;-2.906;2024-02-23T09:31:52;98811.28;;;7.82;100.00
70370;BME280;57790;51.356;-2.906;2024-02-23T09:34:53;98829.06;;;7.73;100.00
70370;BME280;57790;51.356;-2.906;2024-02-23T09:37:53;98820.56;;;7.78;100.00
70370;BME280;57790;51.356;-2.906;2024-02-23T09:40:53;98823.75;;;7.67;100.00
70370;BME280;57790;51.356;-2.906;2024-02-23T09:44:00;98823.38;;;7.70;100.00
70370;BME280;57790;51.356;-2.906;2024-02-23T09:47:02;98809.66;;;7.81;100.00
70370;BME280;57790;51.356;-2.906;2024-02-23T09:50:08;98813.06;;;7.75;100.00
70370;BME280;57790;51.356;-2.906;2024-02-23T09:53:11;98813.13;;;7.82;100.00
70370;BME280;57790;51.356;-2.906;2024-02-23T09:56:13;98819.19;;;7.82;100.00
70370;BME280;57790;51.356;-2.906;2024-02-23T09:59:17;98817.41;;;7.89;100.00
70370;BME280;57790;51.356;-2.906;2024-02-23T10:02:17;98820.03;;;7.83;100.00
70370;BME280;57790;51.356;-2.906;2024-02-23T10:05:18;98822.84;;;7.81;100.00
70370;BME280;57790;51.356;-2.906;2024-02-23T10:08:19;98835.50;;;7.92;100.00
70370;BME280;57790;51.356;-2.906;2024-02-23T10:11:20;98832.22;;;7.90;100.00
70370;BME280;57790;51.356;-2.906;2024-02-23T10:14:21;98840.94;;;7.84;100.00
70370;BME280;57790;51.356;-2.906;2024-02-23T10:17:21;98842.56;;;7.85;100.00
70370;BME280;57790;51.356;-2.906;2024-02-23T10:20:22;98834.25;;;7.88;100.00
70370;BME280;57790;51.356;-2.906;2024-02-23T10:23:22;98844.22;;;7.93;100.00
70370;BME280;57790;51.356;-2.906;2024-02-23T10:26:23;98846.84;;;7.93;100.00
70370;BME280;57790;51.356;-2.906;2024-02-23T10:29:25;98854.22;;;7.97;100.00
70370;BME280;57790;51.356;-2.906;2024-02-23T10:32:29;98856.19;;;7.95;100.00
70370;BME280;57790;51.356;-2.906;2024-02-23T10:35:32;98852.63;;;8.03;100.00
70370;BME280;57790;51.356;-2.906;2024-02-23T10:38:37;98859.91;;;8.01;100.00
70370;BME280;57790;51.356;-2.906;2024-02-23T10:41:46;98870.28;;;8.02;100.00
70370;BME280;57790;51.356;-2.906;2024-02-23T10:44:47;98864.00;;;8.03;100.00
70370;BME280;57790;51.356;-2.906;2024-02-23T10:47:48;98867.22;;;7.99;100.00
70370;BME280;57790;51.356;-2.906;2024-02-23T10:50:50;98865.03;;;8.09;100.00
70370;BME280;57790;51.356;-2.906;2024-02-23T10:53:52;98862.84;;;8.13;100.00
70370;BME280;57790;51.356;-2.906;2024-02-23T10:56:53;98866.91;;;8.15;100.00
70370;BME280;57790;51.356;-2.906;2024-02-23T10:59:55;98868.75;;;8.15;100.00
70370;BME280;57790;51.356;-2.906;2024-02-23T11:02:56;98863.47;;;8.15;100.00
70370;BME280;57790;51.356;-2.906;2024-02-23T11:05:59;98870.16;;;8.17;100.00
70370;BME280;57790;51.356;-2.906;2024-02-23T11:09:12;98867.31;;;8.12;100.00
70370;BME280;57790;51.356;-2.906;2024-02-23T11:12:22;98870.78;;;8.19;100.00
70370;BME280;57790;51.356;-2.906;2024-02-23T11:15:29;98864.31;;;8.22;100.00
70370;BME280;57790;51.356;-2.906;2024-02-23T11:18:31;98866.53;;;8.18;100.00
70370;BME280;57790;51.356;-2.906;2024-02-23T11:21:37;98865.72;;;8.18;100.00
70370;BME280;57790;51.356;-2.906;2024-02-23T11:24:43;98858.19;;;8.15;100.00
70370;BME280;57790;51.356;-2.906;2024-02-23T11:27:49;98861.84;;;8.14;100.00
70370;BME280;57790;51.356;-2.906;2024-02-23T11:30:50;98867.75;;;8.22;100.00
70370;BME280;57790;51.356;-2.906;2024-02-23T11:33:56;98861.03;;;8.20;100.00
70370;BME280;57790;51.356;-2.906;2024-02-23T11:36:57;98864.91;;;8.24;100.00
70370;BME280;57790;51.356;-2.906;2024-02-23T11:40:01;98856.78;;;8.19;100.00
70370;BME280;57790;51.356;-2.906;2024-02-23T11:43:03;98857.81;;;8.24;100.00
70370;BME280;57790;51.356;-2.906;2024-02-23T11:46:04;98865.72;;;8.24;100.00
70370;BME280;57790;51.356;-2.906;2024-02-23T11:49:05;98865.56;;;8.26;100.00
70370;BME280;57790;51.356;-2.906;2024-02-23T11:52:06;98873.09;;;8.29;100.00
70370;BME280;57790;51.356;-2.906;2024-02-23T11:55:07;98875.53;;;8.30;100.00
70370;BME280;57790;51.356;-2.906;2024-02-23T11:58:11;98872.47;;;8.27;100.00
70370;BME280;57790;51.356;-2.906;2024-02-23T12:01:11;98875.34;;;8.32;100.00
70370;BME280;57790;51.356;-2.906;2024-02-23T12:04:11;98876.34;;;8.31;100.00
70370;BME280;57790;51.356;-2.906;2024-02-23T12:07:12;98868.69;;;8.36;100.00
70370;BME280;57790;51.356;-2.906;2024-02-23T12:10:12;98865.78;;;8.31;100.00
70370;BME280;57790;51.356;-2.906;2024-02-23T12:13:13;98868.13;;;8.41;100.00
70370;BME280;57790;51.356;-2.906;2024-02-23T12:16:14;98866.66;;;8.38;100.00
70370;BME280;57790;51.356;-2.906;2024-02-23T12:19:15;98862.44;;;8.44;100.00
70370;BME280;57790;51.356;-2.906;2024-02-23T12:22:15;98872.81;;;8.52;100.00
70370;BME280;57790;51.356;-2.906;2024-02-23T12:25:16;98868.94;;;8.41;100.00
70370;BME280;57790;51.356;-2.906;2024-02-23T12:28:20;98870.38;;;8.50;100.00
70370;BME280;57790;51.356;-2.906;2024-02-23T12:31:24;98859.81;;;8.50;100.00
70370;BME280;57790;51.356;-2.906;2024-02-23T12:34:26;98854.16;;;8.53;100.00
70370;BME280;57790;51.356;-2.906;2024-02-23T12:37:26;98861.22;;;8.46;100.00
70370;BME280;57790;51.356;-2.906;2024-02-23T12:40:27;98856.75;;;8.47;100.00
70370;BME280;57790;51.356;-2.906;2024-02-23T12:43:27;98855.59;;;8.56;100.00
70370;BME280;57790;51.356;-2.906;2024-02-23T12:46:28;98860.69;;;8.57;100.00
70370;BME280;57790;51.356;-2.906;2024-02-23T12:49:28;98843.59;;;8.53;100.00
70370;BME280;57790;51.356;-2.906;2024-02-23T12:52:29;98854.13;;;8.47;100.00
70370;BME280;57790;51.356;-2.906;2024-02-23T12:55:30;98848.25;;;8.51;100.00
70370;BME280;57790;51.356;-2.906;2024-02-23T12:58:31;98853.94;;;8.48;100.00
70370;BME280;57790;51.356;-2.906;2024-02-23T13:01:32;98856.97;;;8.52;100.00
70370;BME280;57790;51.356;-2.906;2024-02-23T13:04:36;98847.28;;;8.59;100.00
70370;BME280;57790;51.356;-2.906;2024-02-23T13:07:37;98847.44;;;8.51;100.00
70370;BME280;57790;51.356;-2.906;2024-02-23T13:10:38;98846.81;;;8.49;100.00
70370;BME280;57790;51.356;-2.906;2024-02-23T13:13:39;98844.84;;;8.57;100.00
70370;BME280;57790;51.356;-2.906;2024-02-23T13:16:39;98849.09;;;8.58;100.00
70370;BME280;57790;51.356;-2.906;2024-02-23T13:19:40;98847.47;;;8.57;100.00
70370;BME280;57790;51.356;-2.906;2024-02-23T13:22:42;98845.00;;;8.49;100.00
70370;BME280;57790;51.356;-2.906;2024-02-23T13:25:43;98845.84;;;8.56;100.00
70370;BME280;57790;51.356;-2.906;2024-02-23T13:28:44;98844.03;;;8.63;100.00
70370;BME280;57790;51.356;-2.906;2024-02-23T13:31:45;98841.19;;;8.58;100.00
70370;BME280;57790;51.356;-2.906;2024-02-23T13:34:45;98853.97;;;8.55;100.00
70370;BME280;57790;51.356;-2.906;2024-02-23T13:37:45;98861.09;;;8.54;100.00
70370;BME280;57790;51.356;-2.906;2024-02-23T13:40:48;98858.66;;;8.59;100.00
70370;BME280;57790;51.356;-2.906;2024-02-23T13:43:49;98852.38;;;8.60;100.00
70370;BME280;57790;51.356;-2.906;2024-02-23T13:46:49;98848.09;;;8.59;100.00
70370;BME280;57790;51.356;-2.906;2024-02-23T13:49:49;98854.34;;;8.52;100.00
70370;BME280;57790;51.356;-2.906;2024-02-23T13:52:50;98840.19;;;8.59;100.00
70370;BME280;57790;51.356;-2.906;2024-02-23T13:55:50;98848.31;;;8.64;100.00
70370;BME280;57790;51.356;-2.906;2024-02-23T13:58:51;98849.94;;;8.59;100.00
70370;BME280;57790;51.356;-2.906;2024-02-23T14:01:52;98844.03;;;8.63;100.00
70370;BME280;57790;51.356;-2.906;2024-02-23T14:04:53;98850.38;;;8.69;100.00
70370;BME280;57790;51.356;-2.906;2024-02-23T14:07:54;98852.00;;;8.70;100.00
70370;BME280;57790;51.356;-2.906;2024-02-23T14:10:54;98848.78;;;8.75;100.00
70370;BME280;57790;51.356;-2.906;2024-02-23T14:13:55;98854.66;;;8.70;100.00
70370;BME280;57790;51.356;-2.906;2024-02-23T14:16:55;98858.91;;;8.71;100.00
70370;BME280;57790;51.356;-2.906;2024-02-23T14:19:56;98869.09;;;8.74;100.00
70370;BME280;57790;51.356;-2.906;2024-02-23T14:22:56;98879.84;;;8.73;100.00
70370;BME280;57790;51.356;-2.906;2024-02-23T14:25:57;98875.78;;;8.70;100.00
70370;BME280;57790;51.356;-2.906;2024-02-23T14:28:58;98875.81;;;8.77;100.00
70370;BME280;57790;51.356;-2.906;2024-02-23T14:31:59;98877.22;;;8.79;100.00
70370;BME280;57790;51.356;-2.906;2024-02-23T14:34:59;98882.69;;;8.71;100.00
70370;BME280;57790;51.356;-2.906;2024-02-23T14:38:01;98882.31;;;8.81;100.00
70370;BME280;57790;51.356;-2.906;2024-02-23T14:41:02;98881.69;;;8.79;100.00
70370;BME280;57790;51.356;-2.906;2024-02-23T14:44:03;98886.41;;;8.83;100.00
70370;BME280;57790;51.356;-2.906;2024-02-23T14:47:04;98889.22;;;8.82;100.00
70370;BME280;57790;51.356;-2.906;2024-02-23T14:50:06;98907.16;;;8.86;100.00
70370;BME280;57790;51.356;-2.906;2024-02-23T14:53:06;98915.91;;;8.87;100.00
70370;BME280;57790;51.356;-2.906;2024-02-23T14:56:08;98907.50;;;8.77;100.00
70370;BME280;57790;51.356;-2.906;2024-02-23T14:59:08;98902.22;;;8.77;100.00
70370;BME280;57790;51.356;-2.906;2024-02-23T15:02:11;98906.50;;;8.78;100.00
70370;BME280;57790;51.356;-2.906;2024-02-23T15:05:17;98904.25;;;8.81;100.00
70370;BME280;57790;51.356;-2.906;2024-02-23T15:08:18;98903.22;;;8.76;100.00
70370;BME280;57790;51.356;-2.906;2024-02-23T15:11:18;98900.44;;;8.84;100.00
70370;BME280;57790;51.356;-2.906;2024-02-23T15:14:19;98903.44;;;8.81;100.00
70370;BME280;57790;51.356;-2.906;2024-02-23T15:17:19;98901.81;;;8.80;100.00
70370;BME280;57790;51.356;-2.906;2024-02-23T15:20:20;98895.38;;;8.89;100.00
70370;BME280;57790;51.356;-2.906;2024-02-23T15:23:20;98887.22;;;8.84;100.00
70370;BME280;57790;51.356;-2.906;2024-02-23T15:26:23;98896.59;;;8.86;100.00
70370;BME280;57790;51.356;-2.906;2024-02-23T15:29:24;98893.75;;;8.88;100.00
70370;BME280;57790;51.356;-2.906;2024-02-23T15:32:24;98886.78;;;8.80;100.00
70370;BME280;57790;51.356;-2.906;2024-02-23T15:35:25;98893.53;;;8.83;100.00
70370;BME280;57790;51.356;-2.906;2024-02-23T15:38:27;98897.16;;;8.82;100.00
70370;BME280;57790;51.356;-2.906;2024-02-23T15:41:28;98893.91;;;8.80;100.00
70370;BME280;57790;51.356;-2.906;2024-02-23T15:44:29;98895.91;;;8.78;100.00
70370;BME280;57790;51.356;-2.906;2024-02-23T15:47:30;98893.06;;;8.73;100.00